Time;durP1;ratioP1;P1;durP2;ratioP2;P2;SDS_P1;SDS_P2;PMS_P1;PMS_P2;Temp;Humidity;BMP_temperature;BMP_pressure;BME280_temperature;BME280_humidity;BME280_pressure;Samples;Min_cycle;Max_cycle;Signal;HPM_P1;HPM_P2
2022/07/16 00:01:23;;;;;;;5.00;2.50;;;15.00;99.90;;;;;;4937263;29;20224;-62
2022/07/16 00:03:52;;;;;;;4.77;2.40;;;15.00;99.90;;;;;;4937380;29;20273;-63
2022/07/16 00:06:19;;;;;;;3.77;2.40;;;15.00;99.90;;;;;;4937128;29;20213;-63
2022/07/16 00:08:45;;;;;;;5.17;2.33;;;15.00;99.90;;;;;;4937078;29;20281;-62
2022/07/16 00:11:12;;;;;;;4.33;2.17;;;15.00;99.90;;;;;;4937072;29;20260;-62
2022/07/16 00:13:39;;;;;;;5.70;2.57;;;14.90;99.90;;;;;;4936539;29;20214;-62
2022/07/16 00:16:07;;;;;;;3.00;2.23;;;14.90;99.90;;;;;;4936939;29;20217;-62
2022/07/16 00:21:19;;;;;;;4.47;2.47;;;14.80;99.90;;;;;;4936957;29;20212;-62
2022/07/16 00:23:46;;;;;;;6.40;2.23;;;14.80;99.90;;;;;;4936932;29;20209;-62
2022/07/16 00:26:13;;;;;;;5.80;2.47;;;14.80;99.90;;;;;;4936225;29;20228;-62
2022/07/16 00:28:40;;;;;;;3.80;2.60;;;14.80;99.90;;;;;;4936251;29;20244;-62
2022/07/16 00:31:06;;;;;;;5.17;2.53;;;14.80;99.90;;;;;;4936391;29;20210;-63
2022/07/16 00:33:34;;;;;;;5.27;2.40;;;14.80;99.90;;;;;;4936777;29;20268;-62
2022/07/16 00:36:01;;;;;;;4.87;2.27;;;14.80;99.90;;;;;;4936629;29;20742;-63
2022/07/16 00:38:28;;;;;;;3.83;2.57;;;14.90;99.90;;;;;;4936550;29;20229;-62
2022/07/16 00:40:55;;;;;;;4.20;2.40;;;14.90;99.90;;;;;;4936429;29;20225;-63
2022/07/16 00:43:22;;;;;;;5.63;2.50;;;15.00;99.90;;;;;;4936502;29;20209;-63
2022/07/16 00:45:48;;;;;;;5.00;2.40;;;15.00;99.90;;;;;;4936610;29;20220;-62
2022/07/16 00:48:15;;;;;;;4.43;2.30;;;15.10;99.90;;;;;;4936035;29;20238;-62
2022/07/16 00:50:44;;;;;;;8.53;3.00;;;15.20;99.90;;;;;;4936683;29;20213;-62
2022/07/16 00:53:12;;;;;;;3.90;2.40;;;15.20;99.90;;;;;;4936029;29;20596;-63
2022/07/16 00:55:39;;;;;;;4.47;2.67;;;15.30;99.90;;;;;;4936368;29;20234;-62
2022/07/16 00:58:06;;;;;;;5.63;2.67;;;15.30;99.90;;;;;;4935733;29;20221;-63
2022/07/16 01:00:33;;;;;;;3.57;2.63;;;15.30;99.90;;;;;;4936282;29;20214;-63
2022/07/16 01:03:01;;;;;;;5.80;2.53;;;15.40;99.90;;;;;;4936169;29;20583;-62
2022/07/16 01:05:28;;;;;;;6.30;2.60;;;15.40;99.90;;;;;;4935846;29;20695;-63
2022/07/16 01:07:56;;;;;;;4.37;2.50;;;15.40;99.90;;;;;;4935650;29;20242;-62
2022/07/16 01:10:24;;;;;;;6.43;2.80;;;15.50;99.90;;;;;;4936090;29;20220;-62
2022/07/16 01:12:51;;;;;;;4.57;2.27;;;15.50;99.90;;;;;;4936064;29;20205;-62
2022/07/16 01:15:18;;;;;;;7.50;3.20;;;15.50;99.90;;;;;;4935725;29;20260;-62
2022/07/16 01:17:45;;;;;;;3.80;2.40;;;15.50;99.90;;;;;;4935723;29;20205;-63
2022/07/16 01:20:12;;;;;;;6.43;2.70;;;15.50;99.90;;;;;;4935568;29;20724;-62
2022/07/16 01:22:39;;;;;;;3.43;2.40;;;15.50;99.90;;;;;;4935842;29;20303;-63
2022/07/16 01:25:11;;;;;;;5.17;2.60;;;15.50;99.90;;;;;;4935700;29;20696;-69
2022/07/16 01:27:39;;;;;;;4.47;2.40;;;15.40;99.90;;;;;;4935170;29;20229;-62
2022/07/16 01:30:08;;;;;;;3.70;2.70;;;15.40;99.90;;;;;;4935968;29;20257;-62
2022/07/16 01:32:36;;;;;;;3.33;2.30;;;15.30;99.90;;;;;;4935442;29;20346;-61
2022/07/16 01:35:03;;;;;;;5.03;2.67;;;15.30;99.90;;;;;;4935758;29;20240;-62
2022/07/16 01:37:30;;;;;;;5.07;2.60;;;15.20;99.90;;;;;;4935107;29;20209;-62
2022/07/16 01:39:58;;;;;;;4.53;2.90;;;15.10;99.90;;;;;;4935565;29;20619;-62
2022/07/16 01:42:26;;;;;;;6.97;2.83;;;15.10;99.90;;;;;;4935439;29;20633;-61
2022/07/16 01:44:53;;;;;;;5.10;2.57;;;15.00;99.90;;;;;;4935242;29;20603;-61
2022/07/16 01:47:20;;;;;;;6.40;2.90;;;14.90;99.90;;;;;;4935647;29;20244;-62
2022/07/16 01:49:46;;;;;;;4.90;2.60;;;14.90;99.90;;;;;;4935249;29;20235;-61
2022/07/16 01:52:19;;;;;;;6.93;3.00;;;14.90;99.90;;;;;;4935313;29;20217;-61
2022/07/16 01:54:48;;;;;;;4.70;3.00;;;14.90;99.90;;;;;;4935041;29;20222;-61
2022/07/16 01:57:16;;;;;;;7.70;3.10;;;14.90;99.90;;;;;;4935092;29;20561;-59
2022/07/16 01:59:44;;;;;;;5.47;2.93;;;14.80;99.90;;;;;;4935049;29;20697;-62
2022/07/16 02:02:11;;;;;;;5.17;2.90;;;14.90;99.90;;;;;;4934883;29;20213;-61
2022/07/16 02:04:40;;;;;;;5.07;2.90;;;14.90;99.90;;;;;;4935142;29;20217;-61
2022/07/16 02:07:07;;;;;;;8.67;3.10;;;14.90;99.90;;;;;;4934558;29;20209;-60
2022/07/16 02:09:34;;;;;;;4.93;3.37;;;14.90;99.90;;;;;;4934932;29;20229;-62
2022/07/16 02:12:01;;;;;;;7.37;3.13;;;14.90;99.90;;;;;;4934467;29;20213;-61
2022/07/16 02:14:27;;;;;;;6.33;3.00;;;15.00;99.90;;;;;;4934698;29;20217;-61
2022/07/16 02:16:55;;;;;;;6.10;2.80;;;15.00;99.90;;;;;;4935015;29;20205;-60
2022/07/16 02:19:22;;;;;;;3.93;3.03;;;15.00;99.90;;;;;;4934856;29;20272;-61
2022/07/16 02:21:49;;;;;;;10.77;3.13;;;15.10;99.90;;;;;;4934791;29;20209;-61
2022/07/16 02:24:15;;;;;;;8.47;3.90;;;15.00;99.90;;;;;;4934704;29;20212;-61
2022/07/16 02:26:42;;;;;;;5.40;3.33;;;15.00;99.90;;;;;;4934006;29;20225;-61
2022/07/16 02:29:09;;;;;;;5.23;3.13;;;15.10;99.90;;;;;;4934597;29;20236;-62
2022/07/16 02:31:35;;;;;;;3.67;3.10;;;15.10;99.90;;;;;;4934979;29;20217;-61
2022/07/16 02:34:03;;;;;;;6.10;3.50;;;15.20;99.90;;;;;;4934997;29;20209;-62
2022/07/16 02:36:30;;;;;;;5.50;3.23;;;15.20;99.90;;;;;;4934174;29;20229;-62
2022/07/16 02:38:57;;;;;;;5.17;3.17;;;15.20;99.90;;;;;;4934634;29;20240;-62
2022/07/16 02:41:23;;;;;;;7.77;3.27;;;15.20;99.90;;;;;;4934443;29;20220;-62
2022/07/16 02:43:50;;;;;;;4.90;3.30;;;15.20;99.90;;;;;;4934812;29;20218;-62
2022/07/16 02:46:17;;;;;;;3.93;3.30;;;15.30;99.90;;;;;;4934263;29;20209;-61
2022/07/16 02:48:43;;;;;;;5.87;3.30;;;15.30;99.90;;;;;;4934701;29;20240;-62
2022/07/16 02:51:11;;;;;;;6.50;2.77;;;15.30;99.90;;;;;;4934787;29;20216;-62
2022/07/16 02:53:39;;;;;;;10.23;3.73;;;15.30;99.90;;;;;;4934833;29;20209;-62
2022/07/16 02:56:06;;;;;;;6.67;2.80;;;15.30;99.90;;;;;;4934645;29;20229;-62
2022/07/16 02:58:33;;;;;;;6.47;3.60;;;15.40;99.90;;;;;;4934389;29;20756;-62
2022/07/16 03:01:00;;;;;;;4.80;3.03;;;15.40;99.90;;;;;;4935143;29;20205;-62
2022/07/16 03:03:26;;;;;;;5.03;3.07;;;15.50;99.90;;;;;;4935648;29;20209;-62
2022/07/16 03:05:53;;;;;;;5.83;3.07;;;15.50;99.90;;;;;;4935223;29;20206;-62
2022/07/16 03:08:21;;;;;;;5.77;3.20;;;15.50;99.90;;;;;;4934748;29;20233;-61
2022/07/16 03:10:48;;;;;;;5.80;3.30;;;15.40;99.90;;;;;;4934315;29;20214;-62
2022/07/16 03:13:15;;;;;;;7.00;3.73;;;15.40;99.90;;;;;;4934683;29;20220;-61
2022/07/16 03:15:42;;;;;;;3.93;2.53;;;15.50;99.90;;;;;;4934322;29;20257;-62
2022/07/16 03:18:08;;;;;;;5.50;2.90;;;15.40;99.90;;;;;;4934170;29;20210;-61
2022/07/16 03:20:35;;;;;;;3.27;2.70;;;15.40;99.90;;;;;;4934122;29;20624;-61
2022/07/16 03:23:02;;;;;;;4.87;2.60;;;15.40;99.90;;;;;;4937511;29;20216;-61
2022/07/16 03:25:30;;;;;;;5.83;3.00;;;15.40;99.90;;;;;;4938254;29;20216;-61
2022/07/16 03:27:57;;;;;;;6.30;3.23;;;15.40;99.90;;;;;;4937402;29;20685;-61
2022/07/16 03:30:24;;;;;;;5.73;2.73;;;15.40;99.90;;;;;;4937722;29;20880;-62
2022/07/16 03:32:51;;;;;;;9.60;2.90;;;15.40;99.90;;;;;;4937594;29;20214;-62
2022/07/16 03:35:17;;;;;;;7.13;3.10;;;15.40;99.90;;;;;;4937908;29;20225;-61
2022/07/16 03:40:30;;;;;;;10.20;3.43;;;15.50;99.90;;;;;;4937571;29;20208;-61
2022/07/16 03:42:56;;;;;;;4.47;2.93;;;15.50;99.90;;;;;;4937467;29;20558;-61
2022/07/16 03:45:23;;;;;;;6.37;3.00;;;15.40;99.90;;;;;;4937614;29;20209;-61
2022/07/16 03:47:50;;;;;;;8.13;3.00;;;15.50;99.90;;;;;;4937387;29;20217;-61
2022/07/16 03:50:17;;;;;;;6.10;3.30;;;15.50;99.90;;;;;;4937054;29;20225;-61
2022/07/16 03:52:44;;;;;;;4.83;2.80;;;15.50;99.90;;;;;;4937663;29;20225;-61
2022/07/16 03:55:11;;;;;;;6.20;2.93;;;15.50;99.90;;;;;;4936956;29;20265;-62
2022/07/16 03:57:39;;;;;;;7.57;3.00;;;15.50;99.90;;;;;;4937157;29;20213;-61
2022/07/16 04:00:07;;;;;;;4.67;2.40;;;15.50;99.90;;;;;;4937013;29;20271;-62
2022/07/16 04:02:34;;;;;;;4.07;2.70;;;15.50;99.90;;;;;;4937174;29;20225;-62
2022/07/16 04:05:01;;;;;;;5.60;3.00;;;15.60;99.90;;;;;;4936926;29;20221;-62
2022/07/16 04:07:27;;;;;;;6.30;2.93;;;15.60;99.90;;;;;;4936773;29;20213;-62
2022/07/16 04:09:54;;;;;;;5.63;2.80;;;15.60;99.90;;;;;;4937178;29;20229;-62
2022/07/16 04:12:23;;;;;;;6.70;2.93;;;15.60;99.90;;;;;;4936952;29;20236;-62
2022/07/16 04:14:51;;;;;;;6.57;2.70;;;15.60;99.90;;;;;;4936917;29;20244;-62
2022/07/16 04:17:18;;;;;;;5.93;3.00;;;15.60;99.90;;;;;;4936701;29;20697;-63
2022/07/16 04:19:44;;;;;;;5.37;2.60;;;15.70;99.90;;;;;;4937024;29;20229;-62
2022/07/16 04:22:11;;;;;;;5.43;2.53;;;15.70;99.90;;;;;;4937024;29;20217;-63
2022/07/16 04:24:38;;;;;;;5.83;2.80;;;15.70;99.90;;;;;;4937227;29;20213;-62
2022/07/16 04:27:04;;;;;;;3.33;2.70;;;15.70;99.90;;;;;;4936610;29;20214;-62
2022/07/16 04:29:31;;;;;;;5.73;2.63;;;15.70;99.90;;;;;;4936958;29;20234;-62
2022/07/16 04:31:59;;;;;;;4.17;2.60;;;15.80;99.90;;;;;;4936995;29;20584;-62
2022/07/16 04:34:26;;;;;;;6.47;2.43;;;15.80;99.90;;;;;;4936080;29;20217;-62
2022/07/16 04:36:52;;;;;;;7.13;2.90;;;15.80;99.90;;;;;;4936380;29;20242;-63
2022/07/16 04:39:19;;;;;;;4.07;2.60;;;15.80;99.90;;;;;;4936446;29;20241;-62
2022/07/16 04:41:46;;;;;;;9.13;2.50;;;15.80;99.90;;;;;;4936665;29;20212;-62
2022/07/16 04:44:13;;;;;;;7.60;2.90;;;15.90;99.90;;;;;;4936632;29;20216;-63
2022/07/16 04:46:39;;;;;;;5.50;2.40;;;15.90;99.90;;;;;;4935965;29;20201;-63
2022/07/16 04:49:07;;;;;;;5.37;2.73;;;16.00;99.90;;;;;;4936443;29;20229;-62
2022/07/16 04:51:34;;;;;;;6.00;3.23;;;16.00;99.90;;;;;;4936233;29;20214;-62
2022/07/16 04:54:01;;;;;;;7.63;2.97;;;16.10;99.90;;;;;;4936156;29;20209;-62
2022/07/16 04:56:28;;;;;;;5.50;2.37;;;16.10;99.90;;;;;;4935663;29;20222;-63
2022/07/16 04:58:55;;;;;;;4.67;2.47;;;16.10;99.90;;;;;;4936307;29;20265;-63
2022/07/16 05:01:22;;;;;;;5.47;2.87;;;16.10;99.90;;;;;;4936432;29;20220;-63
2022/07/16 05:03:48;;;;;;;6.03;2.57;;;16.20;99.90;;;;;;4936059;29;20205;-62
2022/07/16 05:06:16;;;;;;;5.43;2.77;;;16.20;99.90;;;;;;4935821;29;20214;-63
2022/07/16 05:08:43;;;;;;;5.63;2.63;;;16.20;99.90;;;;;;4935797;29;20227;-63
2022/07/16 05:11:10;;;;;;;6.23;2.70;;;16.30;99.90;;;;;;4936246;29;20214;-62
2022/07/16 05:13:37;;;;;;;4.57;2.80;;;16.30;99.90;;;;;;4935914;29;20241;-62
2022/07/16 05:16:05;;;;;;;12.17;2.90;;;16.30;99.90;;;;;;4935895;29;20226;-62
2022/07/16 05:18:31;;;;;;;4.47;2.67;;;16.40;99.90;;;;;;4935886;29;20230;-62
2022/07/16 05:20:58;;;;;;;5.33;2.77;;;16.50;99.90;;;;;;4935621;29;20205;-62
2022/07/16 05:23:26;;;;;;;3.30;2.40;;;16.50;99.90;;;;;;4935763;29;20240;-62
2022/07/16 05:25:53;;;;;;;7.33;2.80;;;16.60;99.90;;;;;;4935410;29;20587;-63
2022/07/16 05:28:19;;;;;;;3.77;2.80;;;16.60;99.90;;;;;;4935795;29;20747;-62
2022/07/16 05:30:46;;;;;;;5.27;2.50;;;16.70;99.90;;;;;;4935755;29;20223;-63
2022/07/16 05:33:13;;;;;;;4.70;3.47;;;16.70;99.90;;;;;;4935818;29;20210;-62
2022/07/16 05:35:39;;;;;;;4.83;2.50;;;16.80;99.90;;;;;;4935423;29;20230;-62
2022/07/16 05:38:06;;;;;;;5.27;2.80;;;16.90;99.90;;;;;;4935050;29;20592;-62
2022/07/16 05:40:34;;;;;;;4.47;2.40;;;17.00;99.90;;;;;;4935451;29;20218;-62
2022/07/16 05:43:01;;;;;;;6.37;2.30;;;17.10;99.90;;;;;;4934974;29;20210;-62
2022/07/16 05:45:28;;;;;;;5.43;2.83;;;17.20;99.90;;;;;;4934767;29;20217;-62
2022/07/16 05:47:54;;;;;;;6.80;2.80;;;17.20;99.90;;;;;;4934918;29;20300;-61
2022/07/16 05:50:21;;;;;;;4.70;3.03;;;17.20;99.90;;;;;;4935289;29;20209;-62
2022/07/16 05:52:48;;;;;;;8.90;2.90;;;17.30;99.90;;;;;;4935298;29;20214;-62
2022/07/16 05:55:14;;;;;;;6.87;2.90;;;17.40;99.90;;;;;;4934989;29;20217;-62
2022/07/16 05:57:43;;;;;;;3.17;2.40;;;17.30;99.90;;;;;;4935084;29;20229;-63
2022/07/16 06:00:11;;;;;;;7.10;2.80;;;17.30;99.90;;;;;;4935045;29;20600;-62
2022/07/16 06:02:38;;;;;;;5.37;2.70;;;17.30;99.90;;;;;;4935065;29;20210;-62
2022/07/16 06:05:06;;;;;;;6.63;3.50;;;17.30;99.90;;;;;;4935008;29;20209;-62
2022/07/16 06:07:32;;;;;;;9.27;3.60;;;17.20;99.90;;;;;;4934923;29;20579;-61
2022/07/16 06:09:59;;;;;;;6.83;4.03;;;17.00;99.90;;;;;;4934591;29;20599;-62
2022/07/16 06:12:25;;;;;;;10.10;4.33;;;17.10;99.90;;;;;;4935052;29;20209;-61
2022/07/16 06:14:53;;;;;;;9.27;4.30;;;17.10;99.90;;;;;;4935191;29;20217;-62
2022/07/16 06:17:21;;;;;;;5.83;4.00;;;17.00;99.90;;;;;;4934379;29;20240;-62
2022/07/16 06:19:48;;;;;;;6.30;5.00;;;17.10;99.90;;;;;;4934919;29;20237;-61
2022/07/16 06:22:14;;;;;;;10.40;5.10;;;17.20;99.90;;;;;;4934799;29;20214;-62
2022/07/16 06:24:41;;;;;;;6.67;4.63;;;17.20;99.90;;;;;;4934881;29;20206;-61
2022/07/16 06:27:08;;;;;;;6.80;4.60;;;17.20;99.90;;;;;;4934466;29;20222;-62
2022/07/16 06:29:34;;;;;;;8.57;4.70;;;17.10;99.90;;;;;;4934498;29;20237;-62
2022/07/16 06:32:02;;;;;;;6.10;4.67;;;17.00;99.90;;;;;;4935058;29;20632;-62
2022/07/16 06:34:29;;;;;;;6.83;5.07;;;17.00;99.90;;;;;;4934679;29;20573;-62
2022/07/16 06:36:55;;;;;;;7.27;4.47;;;17.10;99.90;;;;;;4934366;29;20735;-62
2022/07/16 06:39:22;;;;;;;6.23;4.33;;;17.30;99.90;;;;;;4935308;29;20229;-63
2022/07/16 06:41:49;;;;;;;9.60;4.43;;;17.40;99.90;;;;;;4935672;29;20217;-63
2022/07/16 06:44:15;;;;;;;5.97;4.37;;;17.50;99.90;;;;;;4935196;29;20217;-62
2022/07/16 06:46:42;;;;;;;8.47;4.17;;;17.40;99.90;;;;;;4934833;29;20205;-62
2022/07/16 06:49:10;;;;;;;4.63;3.63;;;17.50;99.90;;;;;;4934547;29;20264;-62
2022/07/16 06:51:37;;;;;;;7.80;4.37;;;17.50;99.90;;;;;;4934164;29;20205;-62
2022/07/16 06:54:03;;;;;;;5.53;3.93;;;17.60;99.90;;;;;;4934534;29;20214;-62
2022/07/16 06:56:30;;;;;;;5.37;3.83;;;17.80;99.90;;;;;;4935220;29;20221;-62
2022/07/16 06:58:57;;;;;;;6.37;3.90;;;17.80;99.90;;;;;;4938271;29;20237;-62
2022/07/16 07:01:24;;;;;;;7.43;3.87;;;17.90;99.90;;;;;;4938451;29;20241;-62
2022/07/16 07:03:51;;;;;;;6.00;3.73;;;17.90;99.90;;;;;;4938344;29;20638;-62
2022/07/16 07:06:19;;;;;;;4.63;2.90;;;18.00;99.90;;;;;;4938142;29;20210;-63
2022/07/16 07:08:46;;;;;;;4.10;2.40;;;17.90;99.90;;;;;;4938438;29;20232;-63
2022/07/16 07:11:12;;;;;;;4.30;2.00;;;17.80;99.90;;;;;;4938219;29;20304;-62
2022/07/16 07:13:40;;;;;;;4.07;2.33;;;17.80;99.90;;;;;;4938114;29;20205;-62
2022/07/16 07:16:06;;;;;;;2.93;1.90;;;17.70;99.90;;;;;;4937413;29;20226;-63
2022/07/16 07:18:34;;;;;;;1.97;1.43;;;17.80;99.90;;;;;;4937833;29;20234;-62
2022/07/16 07:21:01;;;;;;;3.13;1.77;;;17.80;99.90;;;;;;4937948;29;20586;-62
2022/07/16 07:23:29;;;;;;;2.57;1.50;;;17.80;99.90;;;;;;4937984;29;20210;-62
2022/07/16 07:25:55;;;;;;;2.30;1.50;;;17.80;99.90;;;;;;4937389;29;20217;-62
2022/07/16 07:28:22;;;;;;;2.50;1.70;;;17.80;99.90;;;;;;4937675;29;20242;-62
2022/07/16 07:30:49;;;;;;;3.90;1.70;;;18.00;99.90;;;;;;4937826;29;20213;-62
2022/07/16 07:33:15;;;;;;;2.50;1.57;;;18.20;99.90;;;;;;4937686;29;20216;-62
2022/07/16 07:35:43;;;;;;;2.33;1.40;;;18.30;99.90;;;;;;4937742;29;20213;-62
2022/07/16 07:38:09;;;;;;;2.37;1.40;;;18.30;99.90;;;;;;4937450;29;20229;-62
2022/07/16 07:40:37;;;;;;;1.93;1.23;;;18.40;99.90;;;;;;4937583;29;20220;-62
2022/07/16 07:43:04;;;;;;;4.60;1.60;;;18.40;99.90;;;;;;4937794;29;20210;-62
2022/07/16 07:45:31;;;;;;;2.50;1.17;;;18.60;99.90;;;;;;4937534;29;20747;-62
2022/07/16 07:47:58;;;;;;;1.87;1.00;;;18.80;99.90;;;;;;4936943;29;20865;-64
2022/07/16 07:50:24;;;;;;;1.40;1.03;;;18.90;99.90;;;;;;4937623;29;20254;-64
2022/07/16 07:52:52;;;;;;;2.37;1.23;;;18.90;99.90;;;;;;4937493;29;20198;-64
2022/07/16 07:55:19;;;;;;;0.87;0.77;;;18.90;99.90;;;;;;4937329;29;20642;-64
2022/07/16 07:57:47;;;;;;;2.70;0.83;;;18.90;99.90;;;;;;4936841;29;20252;-64
2022/07/16 08:00:15;;;;;;;3.70;0.80;;;18.90;99.90;;;;;;4937092;29;20318;-63
2022/07/16 08:02:44;;;;;;;4.13;1.47;;;18.90;99.90;;;;;;4936750;29;20895;-64
2022/07/16 08:05:11;;;;;;;2.30;0.93;;;19.10;99.90;;;;;;4937166;29;20233;-64
2022/07/16 08:07:37;;;;;;;1.57;0.90;;;19.30;99.90;;;;;;4936578;29;20194;-64
2022/07/16 08:10:05;;;;;;;1.80;0.70;;;19.60;99.90;;;;;;4936939;29;20666;-64
2022/07/16 08:12:32;;;;;;;1.50;0.80;;;19.50;99.90;;;;;;4937269;29;20209;-63
2022/07/16 08:15:00;;;;;;;2.10;0.73;;;19.50;99.90;;;;;;4936815;29;20571;-64
2022/07/16 08:17:27;;;;;;;0.90;0.70;;;19.40;99.90;;;;;;4936897;29;20602;-64
2022/07/16 08:19:53;;;;;;;2.83;0.80;;;19.00;99.90;;;;;;4937234;29;20236;-64
2022/07/16 08:22:20;;;;;;;2.77;0.90;;;18.90;99.90;;;;;;4936683;29;20213;-64
2022/07/16 08:27:31;;;;;;;1.80;1.00;;;19.00;99.90;;;;;;4936341;29;20209;-64
2022/07/16 08:29:57;;;;;;;0.93;0.60;;;19.00;99.90;;;;;;4937034;29;20237;-64
2022/07/16 08:32:25;;;;;;;3.63;0.90;;;19.10;99.90;;;;;;4936643;29;20205;-64
2022/07/16 08:34:52;;;;;;;5.03;1.13;;;19.10;99.90;;;;;;4936687;29;20681;-64
2022/07/16 08:37:31;;;;;;;2.70;1.17;;;18.80;99.90;;;;;;4936141;29;20751;-63
2022/07/16 08:39:58;;;;;;;4.17;1.37;;;18.80;99.90;;;;;;4933582;29;20606;-65
2022/07/16 08:42:26;;;;;;;2.03;1.07;;;18.80;99.90;;;;;;4948741;29;20205;-66
2022/07/16 08:44:53;;;;;;;2.40;0.90;;;18.90;99.90;;;;;;4954973;29;20213;-65
2022/07/16 08:47:21;;;;;;;1.27;0.77;;;18.90;99.90;;;;;;4955372;29;20209;-63
2022/07/16 08:49:50;;;;;;;1.30;0.70;;;19.40;99.90;;;;;;4955068;29;20689;-61
2022/07/16 08:52:20;;;;;;;2.13;0.83;;;19.50;99.90;;;;;;4955167;29;20209;-63
2022/07/16 08:54:48;;;;;;;1.70;1.10;;;19.20;99.90;;;;;;4955067;29;20219;-63
2022/07/16 08:57:15;;;;;;;2.20;1.00;;;19.40;99.90;;;;;;4954774;29;20757;-63
2022/07/16 08:59:43;;;;;;;3.10;1.03;;;19.80;99.90;;;;;;4955280;29;20240;-64
2022/07/16 09:02:12;;;;;;;1.93;0.80;;;20.00;99.90;;;;;;4954698;29;20215;-63
2022/07/16 09:04:39;;;;;;;3.47;1.10;;;20.30;99.90;;;;;;4954853;29;20213;-65
2022/07/16 09:07:07;;;;;;;1.93;1.03;;;19.90;99.90;;;;;;4954252;29;20754;-65
2022/07/16 09:09:33;;;;;;;2.60;1.00;;;20.00;99.90;;;;;;4954754;29;20233;-64
2022/07/16 09:12:00;;;;;;;1.63;1.03;;;20.00;99.90;;;;;;4954919;29;20216;-64
2022/07/16 09:14:27;;;;;;;2.00;1.20;;;19.90;99.90;;;;;;4954567;29;20216;-64
2022/07/16 09:16:55;;;;;;;2.50;0.87;;;19.80;99.90;;;;;;4954354;29;20236;-64
2022/07/16 09:19:25;;;;;;;3.23;0.90;;;20.10;99.90;;;;;;4954393;28;20229;-64
2022/07/16 09:22:04;;;;;;;2.73;1.10;;;20.30;99.90;;;;;;4955025;29;20209;-66
2022/07/16 09:24:34;;;;;;;1.97;0.93;;;20.20;99.90;;;;;;4954473;29;20224;-64
2022/07/16 09:27:03;;;;;;;4.03;1.40;;;20.30;99.90;;;;;;4954140;29;20209;-65
2022/07/16 09:29:30;;;;;;;6.17;3.57;;;20.30;99.90;;;;;;4954519;29;20239;-63
2022/07/16 09:31:56;;;;;;;2.93;1.10;;;20.20;99.90;;;;;;4954187;29;20213;-63
2022/07/16 09:34:23;;;;;;;2.63;1.30;;;20.10;99.90;;;;;;4954007;29;20209;-63
2022/07/16 09:36:58;;;;;;;2.37;0.80;;;20.00;99.90;;;;;;4953934;29;20225;-63
2022/07/16 09:39:25;;;;;;;2.13;0.90;;;20.10;99.90;;;;;;4953919;29;20750;-63
2022/07/16 09:41:53;;;;;;;1.17;0.87;;;20.20;99.90;;;;;;4953627;29;20299;-63
2022/07/16 09:44:22;;;;;;;1.47;0.80;;;20.40;99.90;;;;;;4953882;29;20220;-64
2022/07/16 09:47:01;;;;;;;1.00;0.77;;;20.90;99.90;;;;;;4953846;29;20224;-63
2022/07/16 09:49:30;;;;;;;1.10;0.80;;;20.50;99.90;;;;;;4953994;29;20232;-66
2022/07/16 09:51:58;;;;;;;3.23;1.40;;;20.50;99.90;;;;;;4954032;29;20238;-62
2022/07/16 09:54:29;;;;;;;3.00;0.90;;;20.90;99.90;;;;;;4953823;29;20224;-63
2022/07/16 09:57:08;;;;;;;1.87;0.80;;;20.90;99.90;;;;;;4953386;29;20235;-63
2022/07/16 09:59:36;;;;;;;3.63;1.07;;;20.80;99.90;;;;;;4953760;29;20240;-63
2022/07/16 10:02:04;;;;;;;2.33;1.00;;;20.70;99.90;;;;;;4953865;29;20209;-64
2022/07/16 10:04:30;;;;;;;2.83;1.10;;;20.30;99.90;;;;;;4953946;29;20279;-64
2022/07/16 10:06:58;;;;;;;3.07;1.00;;;20.20;99.90;;;;;;4953426;29;20209;-63
2022/07/16 10:09:25;;;;;;;2.00;0.80;;;20.20;99.90;;;;;;4954212;29;20233;-63
2022/07/16 10:11:53;;;;;;;1.77;0.87;;;20.50;99.90;;;;;;4953699;29;20791;-64
2022/07/16 10:14:22;;;;;;;1.83;0.90;;;20.80;99.90;;;;;;4953867;29;20232;-65
2022/07/16 10:16:49;;;;;;;1.30;0.77;;;21.00;99.90;;;;;;4953213;29;20205;-66
2022/07/16 10:19:16;;;;;;;3.10;1.10;;;21.10;99.90;;;;;;4953603;29;20244;-63
2022/07/16 10:22:15;;;;;;;2.60;1.17;;;21.30;99.90;;;;;;4953633;29;20213;-65
2022/07/16 10:24:46;;;;;;;3.57;1.27;;;21.20;99.90;;;;;;4953560;28;20193;-63
2022/07/16 10:27:24;;;;;;;2.13;0.70;;;21.20;99.90;;;;;;4953424;29;20212;-65
2022/07/16 10:30:07;;;;;;;2.47;0.80;;;21.40;99.90;;;;;;4953298;28;20264;-65
2022/07/16 10:33:10;;;;;;;2.40;1.10;;;21.70;99.90;;;;;;4952648;29;20216;-64
2022/07/16 10:35:39;;;;;;;5.43;0.77;;;21.50;99.90;;;;;;4953623;28;20199;-64
2022/07/16 10:38:09;;;;;;;1.47;1.00;;;21.20;99.90;;;;;;4953433;29;20315;-64
2022/07/16 10:40:37;;;;;;;5.00;1.10;;;21.20;99.90;;;;;;4953221;29;20683;-63
2022/07/16 10:43:16;;;;;;;10.40;5.13;;;21.20;99.90;;;;;;4953232;29;20613;-64
2022/07/16 10:45:55;;;;;;;3.43;0.97;;;21.40;99.90;;;;;;4953396;29;20576;-64
2022/07/16 10:48:26;;;;;;;4.53;1.03;;;21.70;99.90;;;;;;4953170;29;20607;-65
2022/07/16 10:51:16;;;;;;;4.03;1.00;;;21.80;99.90;;;;;;4953645;29;20672;-65
2022/07/16 10:54:20;;;;;;;3.20;0.87;;;21.60;99.90;;;;;;4953026;29;20232;-66
2022/07/16 10:56:49;;;;;;;2.17;0.60;;;21.90;99.90;;;;;;4912438;29;20210;-66
2022/07/16 10:59:17;;;;;;;4.10;0.83;;;21.90;99.90;;;;;;4912401;29;20768;-65
2022/07/16 11:01:46;;;;;;;2.03;0.80;;;22.00;99.90;;;;;;4932426;28;20218;-67
2022/07/16 11:04:14;;;;;;;3.77;0.87;;;22.10;99.90;;;;;;4953024;29;20604;-66
2022/07/16 11:06:43;;;;;;;1.40;0.70;;;21.60;99.90;;;;;;4952974;28;20205;-67
2022/07/16 11:09:10;;;;;;;2.80;0.90;;;21.60;99.90;;;;;;4953104;29;20233;-67
2022/07/16 11:11:39;;;;;;;1.83;0.90;;;21.60;99.90;;;;;;4952899;29;20231;-65
2022/07/16 11:14:07;;;;;;;2.77;0.97;;;21.80;99.90;;;;;;4952779;29;20209;-62
2022/07/16 11:16:34;;;;;;;2.00;0.90;;;22.10;99.90;;;;;;4952731;29;20213;-64
2022/07/16 11:19:01;;;;;;;4.60;0.90;;;22.00;99.90;;;;;;4953077;29;20233;-64
2022/07/16 11:21:28;;;;;;;1.87;0.80;;;22.10;99.90;;;;;;4952819;29;20205;-63
2022/07/16 11:23:56;;;;;;;1.73;0.80;;;21.90;99.90;;;;;;4953148;29;20209;-63
2022/07/16 11:26:24;;;;;;;2.50;0.83;;;21.60;99.90;;;;;;4952599;28;20213;-63
2022/07/16 11:28:55;;;;;;;1.53;0.80;;;21.60;99.90;;;;;;4952750;29;20650;-65
2022/07/16 11:31:26;;;;;;;1.57;1.00;;;21.90;99.90;;;;;;4953168;29;20209;-63
2022/07/16 11:33:54;;;;;;;3.30;1.60;;;22.20;99.90;;;;;;4952390;29;20589;-65
2022/07/16 11:36:21;;;;;;;3.63;0.90;;;21.80;99.90;;;;;;4952674;29;20213;-64
2022/07/16 11:38:48;;;;;;;3.13;0.80;;;21.60;99.90;;;;;;4952742;29;20618;-66
2022/07/16 11:41:16;;;;;;;4.40;0.80;;;21.80;99.90;;;;;;4952882;29;20585;-64
2022/07/16 11:43:43;;;;;;;2.50;0.80;;;22.00;99.90;;;;;;4953871;28;20929;-64
2022/07/16 11:46:23;;;;;;;6.30;1.00;;;21.60;99.90;;;;;;4955903;29;20224;-65
2022/07/16 11:48:51;;;;;;;2.83;0.77;;;21.70;99.90;;;;;;4956049;29;20225;-64
2022/07/16 11:51:18;;;;;;;2.13;0.90;;;21.90;99.90;;;;;;4956112;29;20204;-64
2022/07/16 11:53:49;;;;;;;4.23;1.27;;;21.80;99.90;;;;;;4955696;29;20209;-63
2022/07/16 11:56:30;;;;;;;3.73;0.80;;;21.80;99.90;;;;;;4955929;29;20245;-61
2022/07/16 11:58:57;;;;;;;1.73;0.70;;;21.50;99.90;;;;;;4955937;29;20229;-61
2022/07/16 12:01:25;;;;;;;3.43;0.87;;;21.60;99.90;;;;;;4956071;29;20625;-62
2022/07/16 12:03:55;;;;;;;2.10;0.80;;;21.50;99.90;;;;;;4956049;29;20240;-63
2022/07/16 12:06:22;;;;;;;31.00;18.13;;;21.50;99.90;;;;;;4955509;29;20224;-62
2022/07/16 12:08:53;;;;;;;28.40;15.83;;;21.60;99.90;;;;;;4955442;29;20240;-63
2022/07/16 12:11:19;;;;;;;1.60;1.03;;;21.80;99.90;;;;;;4956120;29;20213;-63
2022/07/16 12:13:52;;;;;;;2.30;0.90;;;21.80;99.90;;;;;;4955484;29;20220;-61
2022/07/16 12:16:21;;;;;;;1.17;0.60;;;22.00;99.90;;;;;;4955399;29;20430;-62
2022/07/16 12:19:16;;;;;;;1.40;0.60;;;21.90;99.90;;;;;;4955529;29;20233;-62
2022/07/16 12:21:43;;;;;;;1.90;0.87;;;21.70;99.90;;;;;;4931527;28;20213;-64
2022/07/16 12:24:10;;;;;;;2.50;0.77;;;21.90;99.90;;;;;;4954815;29;20247;-64
2022/07/16 12:26:39;;;;;;;2.60;1.00;;;22.00;99.90;;;;;;4954771;28;20577;-65
2022/07/16 12:29:08;;;;;;;3.63;0.90;;;22.00;99.90;;;;;;4954397;29;20704;-68
2022/07/16 12:31:37;;;;;;;3.43;0.77;;;22.20;99.90;;;;;;4955248;29;20209;-64
2022/07/16 12:34:05;;;;;;;0.70;0.40;;;22.20;99.90;;;;;;4954814;29;20238;-66
2022/07/16 12:36:35;;;;;;;5.33;0.97;;;21.90;99.90;;;;;;4954180;29;20209;-66
2022/07/16 12:39:06;;;;;;;2.73;0.90;;;22.00;99.90;;;;;;4954584;29;20697;-65
2022/07/16 12:41:34;;;;;;;2.63;0.90;;;21.90;99.90;;;;;;4955233;29;20619;-65
2022/07/16 12:44:02;;;;;;;4.57;0.80;;;22.10;99.90;;;;;;4955030;29;20216;-65
2022/07/16 12:46:31;;;;;;;4.07;0.90;;;22.00;99.90;;;;;;4954630;29;20309;-64
2022/07/16 12:49:00;;;;;;;1.90;0.70;;;21.90;99.90;;;;;;4955150;29;20597;-65
2022/07/16 12:51:29;;;;;;;2.70;0.80;;;22.20;99.90;;;;;;4954774;29;20205;-66
2022/07/16 12:53:58;;;;;;;2.67;0.70;;;22.40;99.90;;;;;;4954233;28;20212;-64
2022/07/16 12:59:11;;;;;;;4.03;0.90;;;22.40;99.90;;;;;;4954787;29;20716;-66
2022/07/16 13:01:38;;;;;;;3.63;0.60;;;22.40;99.90;;;;;;4954855;29;20680;-66